sensor_id;sensor_type;location;lat;lon;timestamp;P1;durP1;ratioP1;P2;durP2;ratioP2
36405;SDS011;22438;42.670;23.288;2023-02-03T00:02:53;14.90;;;3.00;;
36405;SDS011;22438;42.670;23.288;2023-02-03T00:06:14;5.57;;;2.53;;
36405;SDS011;22438;42.670;23.288;2023-02-03T00:09:35;5.68;;;3.25;;
36405;SDS011;22438;42.670;23.288;2023-02-03T00:12:55;7.13;;;3.20;;
36405;SDS011;22438;42.670;23.288;2023-02-03T00:16:17;8.57;;;3.35;;
36405;SDS011;22438;42.670;23.288;2023-02-03T00:19:38;6.22;;;3.35;;
36405;SDS011;22438;42.670;23.288;2023-02-03T00:23:02;6.88;;;2.83;;
36405;SDS011;22438;42.670;23.288;2023-02-03T00:26:27;7.53;;;3.13;;
36405;SDS011;22438;42.670;23.288;2023-02-03T00:29:47;9.45;;;2.92;;
36405;SDS011;22438;42.670;23.288;2023-02-03T00:33:08;7.60;;;3.55;;
36405;SDS011;22438;42.670;23.288;2023-02-03T00:36:29;7.18;;;3.13;;
36405;SDS011;22438;42.670;23.288;2023-02-03T00:39:50;7.28;;;3.38;;
36405;SDS011;22438;42.670;23.288;2023-02-03T00:43:10;7.88;;;3.60;;
36405;SDS011;22438;42.670;23.288;2023-02-03T00:46:31;8.05;;;3.35;;
36405;SDS011;22438;42.670;23.288;2023-02-03T00:49:52;7.97;;;3.10;;
36405;SDS011;22438;42.670;23.288;2023-02-03T00:53:12;6.35;;;3.03;;
36405;SDS011;22438;42.670;23.288;2023-02-03T00:56:33;10.02;;;3.40;;
36405;SDS011;22438;42.670;23.288;2023-02-03T00:59:54;8.38;;;3.75;;
36405;SDS011;22438;42.670;23.288;2023-02-03T01:03:15;10.65;;;3.10;;
36405;SDS011;22438;42.670;23.288;2023-02-03T01:06:36;5.38;;;2.80;;
36405;SDS011;22438;42.670;23.288;2023-02-03T01:09:56;7.13;;;2.63;;
36405;SDS011;22438;42.670;23.288;2023-02-03T01:13:17;7.60;;;2.55;;
36405;SDS011;22438;42.670;23.288;2023-02-03T01:16:38;6.00;;;2.40;;
36405;SDS011;22438;42.670;23.288;2023-02-03T01:19:59;4.63;;;2.15;;
36405;SDS011;22438;42.670;23.288;2023-02-03T01:23:19;3.53;;;1.65;;
36405;SDS011;22438;42.670;23.288;2023-02-03T01:26:40;4.85;;;2.20;;
36405;SDS011;22438;42.670;23.288;2023-02-03T01:30:01;5.13;;;1.73;;
36405;SDS011;22438;42.670;23.288;2023-02-03T01:33:22;6.75;;;2.08;;
36405;SDS011;22438;42.670;23.288;2023-02-03T01:36:43;3.92;;;1.60;;
36405;SDS011;22438;42.670;23.288;2023-02-03T01:40:06;3.22;;;1.52;;
36405;SDS011;22438;42.670;23.288;2023-02-03T01:43:31;3.75;;;1.58;;
36405;SDS011;22438;42.670;23.288;2023-02-03T01:46:53;5.38;;;2.03;;
36405;SDS011;22438;42.670;23.288;2023-02-03T01:53:42;4.05;;;1.90;;
36405;SDS011;22438;42.670;23.288;2023-02-03T01:57:03;3.42;;;1.52;;
36405;SDS011;22438;42.670;23.288;2023-02-03T02:00:26;5.40;;;2.13;;
36405;SDS011;22438;42.670;23.288;2023-02-03T02:03:49;3.72;;;1.73;;
36405;SDS011;22438;42.670;23.288;2023-02-03T02:07:13;5.93;;;2.08;;
36405;SDS011;22438;42.670;23.288;2023-02-03T02:10:33;3.90;;;1.88;;
36405;SDS011;22438;42.670;23.288;2023-02-03T02:13:55;3.92;;;1.83;;
36405;SDS011;22438;42.670;23.288;2023-02-03T02:21:23;5.00;;;2.00;;
36405;SDS011;22438;42.670;23.288;2023-02-03T02:39:54;5.32;;;2.38;;
36405;SDS011;22438;42.670;23.288;2023-02-03T02:47:22;3.17;;;2.03;;
36405;SDS011;22438;42.670;23.288;2023-02-03T02:50:43;3.15;;;1.80;;
36405;SDS011;22438;42.670;23.288;2023-02-03T02:54:06;4.65;;;2.80;;
36405;SDS011;22438;42.670;23.288;2023-02-03T02:57:27;5.15;;;2.42;;
36405;SDS011;22438;42.670;23.288;2023-02-03T03:00:50;5.43;;;2.50;;
36405;SDS011;22438;42.670;23.288;2023-02-03T03:04:11;4.90;;;2.30;;
36405;SDS011;22438;42.670;23.288;2023-02-03T03:07:34;5.25;;;2.08;;
36405;SDS011;22438;42.670;23.288;2023-02-03T03:11:00;6.18;;;3.03;;
36405;SDS011;22438;42.670;23.288;2023-02-03T03:14:21;3.92;;;2.50;;
36405;SDS011;22438;42.670;23.288;2023-02-03T03:17:56;3.97;;;2.40;;
36405;SDS011;22438;42.670;23.288;2023-02-03T03:21:21;4.88;;;2.72;;
36405;SDS011;22438;42.670;23.288;2023-02-03T03:24:46;6.60;;;2.78;;
36405;SDS011;22438;42.670;23.288;2023-02-03T03:28:11;6.18;;;2.28;;
36405;SDS011;22438;42.670;23.288;2023-02-03T03:31:40;4.80;;;2.22;;
36405;SDS011;22438;42.670;23.288;2023-02-03T03:35:01;3.90;;;1.95;;
36405;SDS011;22438;42.670;23.288;2023-02-03T03:38:24;5.80;;;2.33;;
36405;SDS011;22438;42.670;23.288;2023-02-03T03:41:56;5.05;;;1.75;;
36405;SDS011;22438;42.670;23.288;2023-02-03T03:45:33;4.32;;;1.98;;
36405;SDS011;22438;42.670;23.288;2023-02-03T03:48:58;5.70;;;2.40;;
36405;SDS011;22438;42.670;23.288;2023-02-03T03:52:23;2.63;;;1.45;;
36405;SDS011;22438;42.670;23.288;2023-02-03T03:55:48;4.85;;;2.85;;
36405;SDS011;22438;42.670;23.288;2023-02-03T03:59:10;3.83;;;2.00;;
36405;SDS011;22438;42.670;23.288;2023-02-03T04:02:32;4.10;;;1.73;;
36405;SDS011;22438;42.670;23.288;2023-02-03T04:05:54;4.22;;;2.40;;
36405;SDS011;22438;42.670;23.288;2023-02-03T04:09:14;5.75;;;2.30;;
36405;SDS011;22438;42.670;23.288;2023-02-03T04:12:35;4.50;;;2.20;;
36405;SDS011;22438;42.670;23.288;2023-02-03T04:15:56;3.90;;;2.33;;
36405;SDS011;22438;42.670;23.288;2023-02-03T04:19:16;6.03;;;2.65;;
36405;SDS011;22438;42.670;23.288;2023-02-03T04:22:37;5.85;;;2.28;;
36405;SDS011;22438;42.670;23.288;2023-02-03T04:25:59;3.30;;;1.88;;
36405;SDS011;22438;42.670;23.288;2023-02-03T04:29:20;4.10;;;2.20;;
36405;SDS011;22438;42.670;23.288;2023-02-03T04:32:41;5.20;;;2.13;;
36405;SDS011;22438;42.670;23.288;2023-02-03T04:36:01;4.60;;;2.50;;
36405;SDS011;22438;42.670;23.288;2023-02-03T04:39:22;5.00;;;2.42;;
36405;SDS011;22438;42.670;23.288;2023-02-03T04:42:43;7.47;;;2.75;;
36405;SDS011;22438;42.670;23.288;2023-02-03T04:46:04;4.70;;;2.55;;
36405;SDS011;22438;42.670;23.288;2023-02-03T04:49:24;4.00;;;1.80;;
36405;SDS011;22438;42.670;23.288;2023-02-03T04:52:45;5.72;;;2.65;;
36405;SDS011;22438;42.670;23.288;2023-02-03T04:56:06;6.35;;;2.72;;
36405;SDS011;22438;42.670;23.288;2023-02-03T04:59:27;4.95;;;2.90;;
36405;SDS011;22438;42.670;23.288;2023-02-03T05:02:48;6.70;;;3.00;;
36405;SDS011;22438;42.670;23.288;2023-02-03T05:06:08;7.25;;;3.35;;
36405;SDS011;22438;42.670;23.288;2023-02-03T05:09:29;9.77;;;4.20;;
36405;SDS011;22438;42.670;23.288;2023-02-03T05:12:50;6.50;;;2.92;;
36405;SDS011;22438;42.670;23.288;2023-02-03T05:16:10;4.90;;;2.78;;
36405;SDS011;22438;42.670;23.288;2023-02-03T05:19:31;4.70;;;2.63;;
36405;SDS011;22438;42.670;23.288;2023-02-03T05:22:52;7.25;;;2.92;;
36405;SDS011;22438;42.670;23.288;2023-02-03T05:26:13;4.05;;;2.50;;
36405;SDS011;22438;42.670;23.288;2023-02-03T05:29:33;6.82;;;3.47;;
36405;SDS011;22438;42.670;23.288;2023-02-03T05:32:54;8.00;;;3.10;;
36405;SDS011;22438;42.670;23.288;2023-02-03T05:36:15;9.52;;;3.00;;
36405;SDS011;22438;42.670;23.288;2023-02-03T05:39:35;6.78;;;2.95;;
36405;SDS011;22438;42.670;23.288;2023-02-03T05:42:56;6.18;;;3.03;;
36405;SDS011;22438;42.670;23.288;2023-02-03T05:46:17;4.70;;;2.47;;
36405;SDS011;22438;42.670;23.288;2023-02-03T05:49:37;7.70;;;3.08;;
36405;SDS011;22438;42.670;23.288;2023-02-03T05:52:58;6.70;;;3.63;;
36405;SDS011;22438;42.670;23.288;2023-02-03T05:56:20;7.20;;;4.00;;
36405;SDS011;22438;42.670;23.288;2023-02-03T05:59:40;5.50;;;3.10;;
36405;SDS011;22438;42.670;23.288;2023-02-03T06:03:01;5.47;;;3.42;;
36405;SDS011;22438;42.670;23.288;2023-02-03T06:06:23;7.97;;;3.70;;
36405;SDS011;22438;42.670;23.288;2023-02-03T06:09:43;8.77;;;4.45;;
36405;SDS011;22438;42.670;23.288;2023-02-03T06:13:11;8.27;;;3.80;;
36405;SDS011;22438;42.670;23.288;2023-02-03T06:16:33;15.73;;;7.87;;
36405;SDS011;22438;42.670;23.288;2023-02-03T06:19:54;15.07;;;7.15;;
36405;SDS011;22438;42.670;23.288;2023-02-03T06:23:15;9.45;;;4.30;;
36405;SDS011;22438;42.670;23.288;2023-02-03T06:26:38;7.60;;;3.72;;
36405;SDS011;22438;42.670;23.288;2023-02-03T06:29:58;19.10;;;5.00;;
36405;SDS011;22438;42.670;23.288;2023-02-03T06:33:19;7.53;;;3.78;;
36405;SDS011;22438;42.670;23.288;2023-02-03T06:36:40;8.23;;;3.42;;
36405;SDS011;22438;42.670;23.288;2023-02-03T06:40:01;10.45;;;4.75;;
36405;SDS011;22438;42.670;23.288;2023-02-03T06:43:23;5.68;;;2.50;;
36405;SDS011;22438;42.670;23.288;2023-02-03T06:46:44;6.82;;;3.40;;
36405;SDS011;22438;42.670;23.288;2023-02-03T06:50:05;6.95;;;2.40;;
36405;SDS011;22438;42.670;23.288;2023-02-03T06:53:26;5.47;;;2.58;;
36405;SDS011;22438;42.670;23.288;2023-02-03T06:56:46;4.95;;;2.33;;
36405;SDS011;22438;42.670;23.288;2023-02-03T07:00:07;5.90;;;2.85;;
36405;SDS011;22438;42.670;23.288;2023-02-03T07:03:29;4.38;;;2.25;;
36405;SDS011;22438;42.670;23.288;2023-02-03T07:06:49;8.10;;;3.45;;
36405;SDS011;22438;42.670;23.288;2023-02-03T07:10:10;6.93;;;2.42;;
36405;SDS011;22438;42.670;23.288;2023-02-03T07:13:31;9.15;;;3.78;;
36405;SDS011;22438;42.670;23.288;2023-02-03T07:16:51;4.32;;;2.55;;
36405;SDS011;22438;42.670;23.288;2023-02-03T07:20:13;4.72;;;2.78;;
36405;SDS011;22438;42.670;23.288;2023-02-03T07:23:34;6.13;;;3.08;;
36405;SDS011;22438;42.670;23.288;2023-02-03T07:26:55;6.25;;;2.78;;
36405;SDS011;22438;42.670;23.288;2023-02-03T07:30:15;6.47;;;2.67;;
36405;SDS011;22438;42.670;23.288;2023-02-03T07:33:36;5.05;;;2.40;;
36405;SDS011;22438;42.670;23.288;2023-02-03T07:36:57;4.40;;;2.03;;
36405;SDS011;22438;42.670;23.288;2023-02-03T07:40:19;4.35;;;2.50;;
36405;SDS011;22438;42.670;23.288;2023-02-03T07:43:39;4.53;;;3.00;;
36405;SDS011;22438;42.670;23.288;2023-02-03T07:47:00;7.15;;;2.78;;
36405;SDS011;22438;42.670;23.288;2023-02-03T07:50:21;5.65;;;2.17;;
36405;SDS011;22438;42.670;23.288;2023-02-03T07:53:42;5.35;;;2.75;;
36405;SDS011;22438;42.670;23.288;2023-02-03T07:57:02;6.13;;;2.67;;
36405;SDS011;22438;42.670;23.288;2023-02-03T08:00:23;5.72;;;2.10;;
36405;SDS011;22438;42.670;23.288;2023-02-03T08:03:44;4.25;;;2.17;;
36405;SDS011;22438;42.670;23.288;2023-02-03T08:07:05;5.45;;;2.28;;
36405;SDS011;22438;42.670;23.288;2023-02-03T08:10:26;3.90;;;2.25;;
36405;SDS011;22438;42.670;23.288;2023-02-03T08:13:46;7.65;;;2.90;;
36405;SDS011;22438;42.670;23.288;2023-02-03T08:17:07;8.82;;;2.33;;
36405;SDS011;22438;42.670;23.288;2023-02-03T08:20:28;5.50;;;2.38;;
36405;SDS011;22438;42.670;23.288;2023-02-03T08:23:48;4.90;;;2.80;;
36405;SDS011;22438;42.670;23.288;2023-02-03T08:27:09;4.38;;;2.13;;
36405;SDS011;22438;42.670;23.288;2023-02-03T08:30:37;4.40;;;2.00;;
36405;SDS011;22438;42.670;23.288;2023-02-03T08:33:58;8.52;;;2.50;;
36405;SDS011;22438;42.670;23.288;2023-02-03T08:37:19;6.85;;;2.90;;
36405;SDS011;22438;42.670;23.288;2023-02-03T08:40:43;5.57;;;2.17;;
36405;SDS011;22438;42.670;23.288;2023-02-03T08:44:04;5.97;;;2.88;;
36405;SDS011;22438;42.670;23.288;2023-02-03T08:47:25;6.60;;;2.40;;
36405;SDS011;22438;42.670;23.288;2023-02-03T08:50:45;9.30;;;2.47;;
36405;SDS011;22438;42.670;23.288;2023-02-03T08:54:12;7.95;;;2.72;;
36405;SDS011;22438;42.670;23.288;2023-02-03T08:57:34;8.60;;;2.92;;
36405;SDS011;22438;42.670;23.288;2023-02-03T09:00:55;5.25;;;2.55;;
36405;SDS011;22438;42.670;23.288;2023-02-03T15:32:57;6.82;;;3.28;;
36405;SDS011;22438;42.670;23.288;2023-02-03T15:36:23;7.80;;;3.50;;
36405;SDS011;22438;42.670;23.288;2023-02-03T15:43:27;7.65;;;3.25;;
36405;SDS011;22438;42.670;23.288;2023-02-03T15:46:49;10.60;;;3.13;;
36405;SDS011;22438;42.670;23.288;2023-02-03T15:50:26;7.22;;;3.53;;
36405;SDS011;22438;42.670;23.288;2023-02-03T15:53:57;8.60;;;3.47;;
36405;SDS011;22438;42.670;23.288;2023-02-03T15:57:38;8.73;;;3.72;;
36405;SDS011;22438;42.670;23.288;2023-02-03T16:01:00;8.13;;;3.72;;
36405;SDS011;22438;42.670;23.288;2023-02-03T16:04:23;9.63;;;3.08;;
36405;SDS011;22438;42.670;23.288;2023-02-03T16:07:45;12.13;;;3.60;;
36405;SDS011;22438;42.670;23.288;2023-02-03T16:14:56;7.88;;;3.13;;
36405;SDS011;22438;42.670;23.288;2023-02-03T16:18:18;9.38;;;3.30;;
36405;SDS011;22438;42.670;23.288;2023-02-03T16:21:50;9.13;;;3.67;;
36405;SDS011;22438;42.670;23.288;2023-02-03T16:25:13;11.85;;;4.05;;
36405;SDS011;22438;42.670;23.288;2023-02-03T16:28:36;8.27;;;3.58;;
36405;SDS011;22438;42.670;23.288;2023-02-03T16:32:17;8.98;;;3.83;;
36405;SDS011;22438;42.670;23.288;2023-02-03T16:35:59;9.25;;;3.58;;
36405;SDS011;22438;42.670;23.288;2023-02-03T16:39:40;12.18;;;4.28;;
36405;SDS011;22438;42.670;23.288;2023-02-03T16:43:19;9.60;;;4.53;;
36405;SDS011;22438;42.670;23.288;2023-02-03T16:46:59;10.43;;;4.07;;
36405;SDS011;22438;42.670;23.288;2023-02-03T16:50:38;12.73;;;4.90;;
36405;SDS011;22438;42.670;23.288;2023-02-03T16:54:15;9.98;;;4.15;;
36405;SDS011;22438;42.670;23.288;2023-02-03T16:57:37;12.52;;;5.15;;
36405;SDS011;22438;42.670;23.288;2023-02-03T17:00:59;10.57;;;3.83;;
36405;SDS011;22438;42.670;23.288;2023-02-03T17:04:21;11.68;;;4.72;;
36405;SDS011;22438;42.670;23.288;2023-02-03T17:07:42;11.07;;;5.10;;
36405;SDS011;22438;42.670;23.288;2023-02-03T17:11:04;10.68;;;2.60;;
36405;SDS011;22438;42.670;23.288;2023-02-03T17:14:27;7.13;;;2.72;;
36405;SDS011;22438;42.670;23.288;2023-02-03T17:17:47;7.07;;;2.45;;
36405;SDS011;22438;42.670;23.288;2023-02-03T17:21:10;6.57;;;2.72;;
36405;SDS011;22438;42.670;23.288;2023-02-03T17:24:32;10.15;;;2.75;;
36405;SDS011;22438;42.670;23.288;2023-02-03T17:27:53;6.28;;;3.38;;
36405;SDS011;22438;42.670;23.288;2023-02-03T17:31:14;7.03;;;2.88;;
36405;SDS011;22438;42.670;23.288;2023-02-03T17:34:36;8.32;;;2.75;;
36405;SDS011;22438;42.670;23.288;2023-02-03T17:37:57;7.28;;;2.80;;
36405;SDS011;22438;42.670;23.288;2023-02-03T17:41:18;7.82;;;3.08;;
36405;SDS011;22438;42.670;23.288;2023-02-03T17:44:40;7.15;;;2.35;;
36405;SDS011;22438;42.670;23.288;2023-02-03T17:48:01;4.97;;;2.17;;
36405;SDS011;22438;42.670;23.288;2023-02-03T17:51:23;5.20;;;1.88;;
36405;SDS011;22438;42.670;23.288;2023-02-03T17:54:45;4.47;;;1.88;;
36405;SDS011;22438;42.670;23.288;2023-02-03T17:58:06;9.10;;;2.35;;
36405;SDS011;22438;42.670;23.288;2023-02-03T18:01:27;4.60;;;1.90;;
36405;SDS011;22438;42.670;23.288;2023-02-03T18:04:48;4.32;;;1.98;;
36405;SDS011;22438;42.670;23.288;2023-02-03T18:08:09;4.85;;;1.70;;
36405;SDS011;22438;42.670;23.288;2023-02-03T18:11:30;4.45;;;1.40;;
36405;SDS011;22438;42.670;23.288;2023-02-03T18:14:52;2.35;;;1.15;;
36405;SDS011;22438;42.670;23.288;2023-02-03T18:18:12;2.80;;;1.52;;
36405;SDS011;22438;42.670;23.288;2023-02-03T18:21:36;3.95;;;1.75;;
36405;SDS011;22438;42.670;23.288;2023-02-03T18:24:57;4.63;;;1.80;;
36405;SDS011;22438;42.670;23.288;2023-02-03T18:28:18;4.07;;;1.75;;
36405;SDS011;22438;42.670;23.288;2023-02-03T18:31:39;5.55;;;1.63;;
36405;SDS011;22438;42.670;23.288;2023-02-03T18:35:00;5.10;;;1.85;;
36405;SDS011;22438;42.670;23.288;2023-02-03T18:38:21;4.88;;;1.63;;
36405;SDS011;22438;42.670;23.288;2023-02-03T18:41:41;3.72;;;1.98;;
36405;SDS011;22438;42.670;23.288;2023-02-03T18:45:02;4.43;;;1.70;;
36405;SDS011;22438;42.670;23.288;2023-02-03T18:48:25;4.32;;;2.00;;
36405;SDS011;22438;42.670;23.288;2023-02-03T18:51:46;4.13;;;1.90;;
36405;SDS011;22438;42.670;23.288;2023-02-03T18:55:07;5.18;;;2.15;;
36405;SDS011;22438;42.670;23.288;2023-02-03T18:58:28;6.25;;;2.55;;
36405;SDS011;22438;42.670;23.288;2023-02-03T19:01:49;6.07;;;2.20;;
36405;SDS011;22438;42.670;23.288;2023-02-03T19:05:10;5.88;;;2.40;;
36405;SDS011;22438;42.670;23.288;2023-02-03T19:08:31;5.38;;;2.30;;
36405;SDS011;22438;42.670;23.288;2023-02-03T19:11:51;4.60;;;1.88;;
36405;SDS011;22438;42.670;23.288;2023-02-03T19:15:12;5.28;;;2.33;;
36405;SDS011;22438;42.670;23.288;2023-02-03T19:18:33;4.47;;;2.15;;
36405;SDS011;22438;42.670;23.288;2023-02-03T19:21:55;6.25;;;2.17;;
36405;SDS011;22438;42.670;23.288;2023-02-03T19:25:17;5.70;;;2.50;;
36405;SDS011;22438;42.670;23.288;2023-02-03T19:28:38;6.88;;;2.10;;
36405;SDS011;22438;42.670;23.288;2023-02-03T19:31:59;6.53;;;2.30;;
36405;SDS011;22438;42.670;23.288;2023-02-03T19:35:20;5.60;;;2.28;;
36405;SDS011;22438;42.670;23.288;2023-02-03T19:38:41;5.18;;;2.00;;
36405;SDS011;22438;42.670;23.288;2023-02-03T19:42:02;3.70;;;1.58;;
36405;SDS011;22438;42.670;23.288;2023-02-03T19:45:24;4.90;;;1.50;;
36405;SDS011;22438;42.670;23.288;2023-02-03T19:48:44;2.90;;;1.50;;
36405;SDS011;22438;42.670;23.288;2023-02-03T19:52:05;3.05;;;1.58;;
36405;SDS011;22438;42.670;23.288;2023-02-03T19:55:28;2.33;;;1.25;;
36405;SDS011;22438;42.670;23.288;2023-02-03T19:58:50;2.83;;;1.30;;
36405;SDS011;22438;42.670;23.288;2023-02-03T20:02:11;2.70;;;1.58;;
36405;SDS011;22438;42.670;23.288;2023-02-03T20:05:34;6.22;;;1.92;;
36405;SDS011;22438;42.670;23.288;2023-02-03T20:08:55;3.53;;;1.65;;
36405;SDS011;22438;42.670;23.288;2023-02-03T20:12:16;4.95;;;2.40;;
36405;SDS011;22438;42.670;23.288;2023-02-03T20:15:37;14.55;;;5.05;;
36405;SDS011;22438;42.670;23.288;2023-02-03T20:18:57;18.98;;;8.90;;
36405;SDS011;22438;42.670;23.288;2023-02-03T20:22:20;24.85;;;10.10;;
36405;SDS011;22438;42.670;23.288;2023-02-03T20:25:41;23.08;;;10.52;;
36405;SDS011;22438;42.670;23.288;2023-02-03T20:29:02;22.55;;;10.52;;
36405;SDS011;22438;42.670;23.288;2023-02-03T20:32:22;25.13;;;10.15;;
36405;SDS011;22438;42.670;23.288;2023-02-03T20:35:43;20.90;;;10.10;;
36405;SDS011;22438;42.670;23.288;2023-02-03T20:39:04;21.67;;;10.13;;
36405;SDS011;22438;42.670;23.288;2023-02-03T20:42:25;25.90;;;10.50;;
36405;SDS011;22438;42.670;23.288;2023-02-03T20:45:46;25.25;;;10.02;;
36405;SDS011;22438;42.670;23.288;2023-02-03T20:49:12;25.65;;;11.57;;
36405;SDS011;22438;42.670;23.288;2023-02-03T20:52:33;25.77;;;10.70;;
36405;SDS011;22438;42.670;23.288;2023-02-03T20:55:54;28.00;;;12.52;;
36405;SDS011;22438;42.670;23.288;2023-02-03T20:59:18;29.58;;;12.18;;
36405;SDS011;22438;42.670;23.288;2023-02-03T21:02:39;25.58;;;12.55;;
36405;SDS011;22438;42.670;23.288;2023-02-03T21:06:19;25.63;;;11.65;;
36405;SDS011;22438;42.670;23.288;2023-02-03T21:09:40;25.85;;;13.10;;
36405;SDS011;22438;42.670;23.288;2023-02-03T21:13:03;29.23;;;11.55;;
36405;SDS011;22438;42.670;23.288;2023-02-03T21:16:36;28.17;;;12.07;;
36405;SDS011;22438;42.670;23.288;2023-02-03T21:19:58;30.48;;;12.93;;
36405;SDS011;22438;42.670;23.288;2023-02-03T21:23:19;23.45;;;11.07;;
36405;SDS011;22438;42.670;23.288;2023-02-03T21:26:44;26.95;;;12.75;;
36405;SDS011;22438;42.670;23.288;2023-02-03T21:30:20;24.50;;;12.80;;
36405;SDS011;22438;42.670;23.288;2023-02-03T21:33:50;27.10;;;12.25;;
36405;SDS011;22438;42.670;23.288;2023-02-03T21:40:39;27.33;;;12.68;;
36405;SDS011;22438;42.670;23.288;2023-02-03T21:44:00;20.70;;;10.02;;
36405;SDS011;22438;42.670;23.288;2023-02-03T21:47:21;27.33;;;11.32;;
36405;SDS011;22438;42.670;23.288;2023-02-03T21:50:41;25.90;;;12.52;;
36405;SDS011;22438;42.670;23.288;2023-02-03T21:54:11;27.00;;;13.05;;
36405;SDS011;22438;42.670;23.288;2023-02-03T21:57:49;27.20;;;10.88;;
36405;SDS011;22438;42.670;23.288;2023-02-03T22:01:10;23.85;;;10.73;;
36405;SDS011;22438;42.670;23.288;2023-02-03T22:04:35;24.60;;;10.55;;
36405;SDS011;22438;42.670;23.288;2023-02-03T22:07:56;24.73;;;11.85;;
36405;SDS011;22438;42.670;23.288;2023-02-03T22:11:17;21.45;;;10.27;;
36405;SDS011;22438;42.670;23.288;2023-02-03T22:14:39;23.02;;;10.18;;
36405;SDS011;22438;42.670;23.288;2023-02-03T22:17:59;19.42;;;10.00;;
36405;SDS011;22438;42.670;23.288;2023-02-03T22:21:20;29.40;;;10.82;;
36405;SDS011;22438;42.670;23.288;2023-02-03T22:24:41;24.35;;;11.15;;
36405;SDS011;22438;42.670;23.288;2023-02-03T22:28:02;21.15;;;9.80;;
36405;SDS011;22438;42.670;23.288;2023-02-03T22:31:23;25.85;;;10.88;;
36405;SDS011;22438;42.670;23.288;2023-02-03T22:34:44;24.00;;;10.30;;
36405;SDS011;22438;42.670;23.288;2023-02-03T22:38:05;20.20;;;9.90;;
36405;SDS011;22438;42.670;23.288;2023-02-03T22:41:25;19.55;;;8.80;;
36405;SDS011;22438;42.670;23.288;2023-02-03T22:44:46;12.82;;;5.80;;
36405;SDS011;22438;42.670;23.288;2023-02-03T22:48:07;11.88;;;4.90;;
36405;SDS011;22438;42.670;23.288;2023-02-03T22:51:27;13.57;;;5.20;;
36405;SDS011;22438;42.670;23.288;2023-02-03T22:54:48;9.30;;;3.40;;
36405;SDS011;22438;42.670;23.288;2023-02-03T22:58:09;11.73;;;3.90;;
36405;SDS011;22438;42.670;23.288;2023-02-03T23:01:31;17.58;;;8.23;;
36405;SDS011;22438;42.670;23.288;2023-02-03T23:04:51;18.85;;;8.60;;
36405;SDS011;22438;42.670;23.288;2023-02-03T23:08:12;19.48;;;9.48;;
36405;SDS011;22438;42.670;23.288;2023-02-03T23:11:33;19.30;;;8.90;;
36405;SDS011;22438;42.670;23.288;2023-02-03T23:14:54;17.92;;;8.25;;
36405;SDS011;22438;42.670;23.288;2023-02-03T23:18:14;23.50;;;9.65;;
36405;SDS011;22438;42.670;23.288;2023-02-03T23:21:35;20.55;;;9.32;;
36405;SDS011;22438;42.670;23.288;2023-02-03T23:24:56;17.85;;;9.35;;
36405;SDS011;22438;42.670;23.288;2023-02-03T23:28:16;19.92;;;8.23;;
36405;SDS011;22438;42.670;23.288;2023-02-03T23:31:37;19.27;;;9.50;;
36405;SDS011;22438;42.670;23.288;2023-02-03T23:34:59;20.33;;;8.52;;
36405;SDS011;22438;42.670;23.288;2023-02-03T23:41:59;18.48;;;9.23;;
36405;SDS011;22438;42.670;23.288;2023-02-03T23:45:19;21.67;;;9.23;;
36405;SDS011;22438;42.670;23.288;2023-02-03T23:48:40;18.90;;;8.57;;
36405;SDS011;22438;42.670;23.288;2023-02-03T23:52:01;19.65;;;9.15;;
36405;SDS011;22438;42.670;23.288;2023-02-03T23:55:22;18.02;;;8.63;;
36405;SDS011;22438;42.670;23.288;2023-02-03T23:58:42;19.92;;;9.07;;
